createdAt,value
2019-03-30T00:01:18.416Z,98.90
2019-03-30T00:03:47.196Z,99.10
2019-03-30T00:06:15.759Z,98.90
2019-03-30T00:08:44.228Z,98.80
2019-03-30T00:11:12.759Z,98.90
2019-03-30T00:13:41.269Z,98.70
2019-03-30T00:16:09.834Z,98.70
2019-03-30T00:18:41.231Z,98.80
2019-03-30T00:21:08.579Z,98.90
2019-03-30T00:23:37.045Z,98.80
2019-03-30T00:26:05.585Z,98.50
2019-03-30T00:28:34.079Z,98.60
2019-03-30T00:31:02.545Z,98.90
2019-03-30T00:33:31.012Z,99.00
2019-03-30T00:35:59.736Z,99.10
2019-03-30T00:38:28.213Z,99.40
2019-03-30T00:40:56.684Z,99.30
2019-03-30T00:43:25.243Z,99.40
2019-03-30T00:45:53.723Z,99.40
2019-03-30T00:48:22.260Z,99.70
2019-03-30T00:50:50.757Z,99.90
2019-03-30T00:53:19.239Z,99.90
2019-03-30T00:55:47.779Z,99.90
2019-03-30T00:58:16.329Z,99.60
2019-03-30T01:00:44.793Z,99.20
2019-03-30T01:03:13.267Z,99.50
2019-03-30T01:05:41.838Z,99.60
2019-03-30T01:08:10.377Z,99.10
2019-03-30T01:10:38.840Z,99.00
2019-03-30T01:13:07.346Z,99.40
2019-03-30T01:15:35.822Z,99.40
2019-03-30T01:18:04.496Z,98.90
2019-03-30T01:20:32.997Z,99.10
2019-03-30T01:23:01.476Z,99.30
2019-03-30T01:25:30.017Z,99.80
2019-03-30T01:27:58.580Z,99.60
2019-03-30T01:30:27.118Z,99.90
2019-03-30T01:32:55.576Z,99.90
2019-03-30T01:35:24.339Z,99.50
2019-03-30T01:37:52.919Z,99.20
2019-03-30T01:40:21.379Z,99.60
2019-03-30T01:42:49.883Z,99.80
2019-03-30T01:45:18.557Z,99.60
2019-03-30T01:47:47.244Z,99.50
2019-03-30T01:50:17.555Z,99.10
2019-03-30T01:52:46.388Z,99.40
2019-03-30T01:55:14.851Z,99.30
2019-03-30T01:57:43.354Z,99.50
2019-03-30T02:00:12.727Z,99.40
2019-03-30T02:02:41.264Z,99.50
2019-03-30T02:05:10.807Z,99.20
2019-03-30T02:07:39.265Z,99.70
2019-03-30T02:10:08.763Z,99.70
2019-03-30T02:12:37.598Z,99.70
2019-03-30T02:15:06.813Z,99.60
2019-03-30T02:17:35.275Z,99.70
2019-03-30T02:20:06.513Z,99.50
2019-03-30T02:22:35.000Z,99.60
2019-03-30T02:25:04.645Z,99.10
2019-03-30T02:27:32.357Z,98.90
2019-03-30T02:30:00.820Z,99.40
2019-03-30T02:32:29.290Z,99.90
2019-03-30T02:34:57.800Z,99.90
2019-03-30T02:37:26.336Z,99.90
2019-03-30T02:39:54.951Z,99.90
2019-03-30T02:42:23.450Z,99.90
2019-03-30T02:44:51.913Z,99.90
2019-03-30T02:47:20.650Z,99.90
2019-03-30T02:49:49.147Z,99.90
2019-03-30T02:52:17.692Z,99.70
2019-03-30T02:54:46.166Z,99.70
2019-03-30T02:57:14.837Z,99.50
2019-03-30T02:59:43.381Z,99.80
2019-03-30T03:02:11.931Z,99.90
2019-03-30T03:04:40.505Z,99.80
2019-03-30T03:07:09.037Z,99.90
2019-03-30T03:09:37.650Z,99.90
2019-03-30T03:12:06.212Z,99.80
2019-03-30T03:14:34.674Z,99.90
2019-03-30T03:17:03.150Z,99.90
2019-03-30T03:19:31.718Z,99.90
2019-03-30T03:22:00.271Z,99.90
2019-03-30T03:24:28.818Z,99.90
2019-03-30T03:26:57.396Z,99.90
2019-03-30T03:29:25.950Z,99.90
2019-03-30T03:31:54.502Z,99.90
2019-03-30T03:34:23.078Z,99.90
2019-03-30T03:36:51.637Z,99.90
2019-03-30T03:39:20.165Z,99.90
2019-03-30T03:41:49.473Z,99.90
2019-03-30T03:44:18.008Z,99.90
2019-03-30T03:46:46.545Z,99.90
2019-03-30T03:49:15.123Z,99.90
2019-03-30T03:51:44.498Z,99.90
2019-03-30T03:54:12.965Z,99.90
2019-03-30T03:56:41.712Z,99.90
2019-03-30T03:59:11.520Z,99.90
2019-03-30T04:01:41.439Z,99.90
2019-03-30T04:04:12.619Z,99.90
2019-03-30T04:06:43.580Z,99.90
2019-03-30T04:09:13.569Z,99.90
2019-03-30T04:11:43.671Z,99.90
2019-03-30T04:14:13.866Z,99.90
2019-03-30T04:16:42.470Z,99.90
2019-03-30T04:19:11.110Z,99.80
2019-03-30T04:21:44.105Z,99.90
2019-03-30T04:24:09.847Z,99.70
2019-03-30T04:26:38.432Z,99.60
2019-03-30T04:29:06.967Z,99.90
2019-03-30T04:31:35.516Z,99.90
2019-03-30T04:34:04.088Z,99.90
2019-03-30T04:36:32.638Z,99.90
2019-03-30T04:39:01.248Z,99.90
2019-03-30T04:41:29.813Z,99.90
2019-03-30T04:43:58.466Z,99.90
2019-03-30T04:46:26.933Z,99.90
2019-03-30T04:48:55.501Z,99.90
2019-03-30T04:51:23.959Z,99.90
2019-03-30T04:53:52.495Z,99.90
2019-03-30T04:56:20.993Z,99.60
2019-03-30T04:58:49.461Z,99.90
2019-03-30T05:01:17.929Z,99.40
2019-03-30T05:03:46.504Z,99.90
2019-03-30T05:06:15.043Z,99.90
2019-03-30T05:08:43.507Z,99.90
2019-03-30T05:11:12.077Z,99.90
2019-03-30T05:13:40.622Z,99.90
2019-03-30T05:16:09.083Z,99.90
2019-03-30T05:18:37.604Z,99.90
2019-03-30T05:21:06.073Z,99.90
2019-03-30T05:23:34.620Z,99.90
2019-03-30T05:26:03.308Z,99.90
2019-03-30T05:28:31.844Z,99.90
2019-03-30T05:31:00.308Z,99.70
2019-03-30T05:33:28.817Z,99.50
2019-03-30T05:35:57.348Z,99.20
2019-03-30T05:38:25.813Z,99.10
2019-03-30T05:40:54.317Z,99.10
2019-03-30T05:43:22.844Z,99.70
2019-03-30T05:45:51.773Z,99.70
2019-03-30T05:48:20.278Z,99.50
2019-03-30T05:50:48.818Z,99.60
2019-03-30T05:53:17.356Z,99.90
2019-03-30T05:55:45.924Z,99.90
2019-03-30T05:58:14.397Z,99.90
2019-03-30T06:00:42.869Z,99.90
2019-03-30T06:03:11.444Z,99.90
2019-03-30T06:05:39.909Z,99.80
2019-03-30T06:08:08.447Z,99.60
2019-03-30T06:10:38.753Z,99.40
2019-03-30T06:13:07.220Z,98.70
2019-03-30T06:15:35.761Z,98.70
2019-03-30T06:18:05.315Z,98.30
2019-03-30T06:20:33.095Z,98.30
2019-03-30T06:23:01.559Z,98.40
2019-03-30T06:25:30.144Z,98.00
2019-03-30T06:27:58.674Z,97.40
2019-03-30T06:30:27.780Z,97.10
2019-03-30T06:32:56.313Z,96.80
2019-03-30T06:35:24.865Z,96.80
2019-03-30T06:37:53.394Z,96.70
2019-03-30T06:40:21.931Z,96.30
2019-03-30T06:42:50.471Z,96.20
2019-03-30T06:45:19.021Z,95.90
2019-03-30T06:47:47.850Z,95.50
2019-03-30T06:50:16.560Z,94.80
2019-03-30T06:52:56.831Z,94.80
2019-03-30T06:55:15.326Z,93.60
2019-03-30T06:57:43.927Z,92.90
2019-03-30T07:00:14.255Z,92.70
2019-03-30T07:02:43.421Z,92.50
2019-03-30T07:05:12.528Z,93.00
2019-03-30T07:07:44.073Z,92.80
2019-03-30T07:10:14.289Z,91.30
2019-03-30T07:12:44.022Z,91.00
2019-03-30T07:15:11.706Z,91.30
2019-03-30T07:17:43.353Z,90.50
2019-03-30T07:20:14.964Z,91.10
2019-03-30T07:22:43.596Z,91.30
2019-03-30T07:25:12.236Z,90.40
2019-03-30T07:27:40.705Z,91.20
2019-03-30T07:30:09.304Z,89.40
2019-03-30T07:32:37.880Z,88.70
2019-03-30T07:35:07.484Z,89.20
2019-03-30T07:37:35.952Z,89.30
2019-03-30T07:40:06.301Z,87.80
2019-03-30T07:42:34.833Z,86.70
2019-03-30T07:45:04.544Z,87.60
2019-03-30T07:47:32.335Z,87.70
2019-03-30T07:50:01.202Z,87.00
2019-03-30T07:52:29.818Z,84.80
2019-03-30T07:54:58.326Z,80.60
2019-03-30T07:57:26.885Z,82.20
2019-03-30T07:59:55.360Z,82.90
2019-03-30T08:02:23.888Z,80.50
2019-03-30T08:04:52.502Z,81.80
2019-03-30T08:07:21.047Z,82.50
2019-03-30T08:09:49.640Z,82.20
2019-03-30T08:12:18.344Z,81.60
2019-03-30T08:14:46.878Z,80.80
2019-03-30T08:17:15.921Z,78.40
2019-03-30T08:19:44.497Z,77.00
2019-03-30T08:22:12.985Z,78.40
2019-03-30T08:24:41.650Z,76.50
2019-03-30T08:27:10.178Z,76.70
2019-03-30T08:29:38.655Z,75.80
2019-03-30T08:32:07.218Z,76.00
2019-03-30T08:34:35.702Z,75.50
2019-03-30T08:37:04.316Z,76.60
2019-03-30T08:39:33.213Z,75.90
2019-03-30T08:42:01.757Z,77.00
2019-03-30T08:44:32.897Z,74.70
2019-03-30T08:47:01.475Z,73.60
2019-03-30T08:49:29.951Z,70.60
2019-03-30T08:52:00.165Z,69.90
2019-03-30T08:54:32.003Z,70.90
2019-03-30T08:57:00.531Z,69.10
2019-03-30T08:59:29.101Z,70.40
2019-03-30T09:01:57.665Z,68.70
2019-03-30T09:04:26.132Z,67.20
2019-03-30T09:06:54.680Z,64.90
2019-03-30T09:09:23.189Z,64.20
2019-03-30T09:11:51.732Z,65.40
2019-03-30T09:14:21.208Z,64.70
2019-03-30T09:16:49.712Z,62.70
2019-03-30T09:19:18.261Z,61.90
2019-03-30T09:21:46.801Z,62.20
2019-03-30T09:24:15.504Z,61.80
2019-03-30T09:26:44.718Z,63.40
2019-03-30T09:29:13.257Z,63.20
2019-03-30T09:31:41.881Z,65.40
2019-03-30T09:34:10.425Z,64.80
2019-03-30T09:36:39.048Z,63.20
2019-03-30T09:39:07.710Z,64.10
2019-03-30T09:41:36.244Z,65.00
2019-03-30T09:44:06.388Z,62.60
2019-03-30T09:46:34.901Z,59.50
2019-03-30T09:49:06.516Z,59.40
2019-03-30T09:51:34.983Z,61.20
2019-03-30T09:54:03.845Z,60.10
2019-03-30T09:56:32.385Z,61.60
2019-03-30T09:59:00.854Z,61.40
2019-03-30T10:01:29.454Z,62.30
2019-03-30T10:03:57.984Z,59.60
2019-03-30T10:06:34.184Z,59.40
2019-03-30T10:08:56.698Z,58.10
2019-03-30T10:11:25.265Z,58.40
2019-03-30T10:13:53.843Z,57.20
2019-03-30T10:16:22.358Z,55.80
2019-03-30T10:18:50.903Z,53.80
2019-03-30T10:21:19.370Z,52.50
2019-03-30T10:23:47.947Z,52.90
2019-03-30T10:26:16.414Z,51.90
2019-03-30T10:28:47.088Z,52.00
2019-03-30T10:31:16.412Z,48.70
2019-03-30T10:33:44.886Z,47.60
2019-03-30T10:36:13.436Z,49.50
2019-03-30T10:38:41.958Z,50.40
2019-03-30T10:41:10.490Z,50.50
2019-03-30T10:43:39.029Z,51.00
2019-03-30T10:46:07.641Z,52.60
2019-03-30T10:48:36.162Z,53.10
2019-03-30T10:51:04.632Z,51.60
2019-03-30T10:53:33.135Z,52.60
2019-03-30T10:56:02.076Z,52.10
2019-03-30T10:58:30.643Z,51.20
2019-03-30T11:00:59.395Z,50.70
2019-03-30T11:03:27.859Z,50.00
2019-03-30T11:05:56.407Z,49.80
2019-03-30T11:08:24.992Z,50.60
2019-03-30T11:10:53.454Z,47.00
2019-03-30T11:13:21.924Z,47.50
2019-03-30T11:15:50.565Z,46.60
2019-03-30T11:18:19.034Z,46.40
2019-03-30T11:20:47.599Z,44.30
2019-03-30T11:23:16.243Z,41.70
2019-03-30T11:25:44.797Z,41.00
2019-03-30T11:28:13.313Z,42.40
2019-03-30T11:30:41.868Z,42.50
2019-03-30T11:33:10.513Z,43.00
2019-03-30T11:35:39.061Z,43.90
2019-03-30T11:38:13.207Z,44.30
2019-03-30T11:40:46.243Z,40.80
2019-03-30T11:43:14.949Z,41.10
2019-03-30T11:45:43.518Z,44.70
2019-03-30T11:48:12.095Z,44.90
2019-03-30T11:50:40.662Z,45.80
2019-03-30T11:53:12.144Z,45.90
2019-03-30T11:55:40.705Z,45.60
2019-03-30T11:58:10.276Z,43.10
2019-03-30T12:00:38.073Z,42.80
2019-03-30T12:03:06.707Z,40.30
2019-03-30T12:05:35.232Z,38.80
2019-03-30T12:08:05.684Z,37.60
2019-03-30T12:10:34.741Z,35.50
2019-03-30T12:13:03.289Z,33.20
2019-03-30T12:15:36.809Z,34.90
2019-03-30T12:18:05.626Z,31.40
2019-03-30T12:21:07.335Z,31.50
2019-03-30T12:26:30.639Z,30.60
2019-03-30T12:28:59.273Z,30.30
2019-03-30T12:31:31.162Z,30.30
2019-03-30T12:34:12.929Z,29.80
2019-03-30T12:36:40.182Z,28.10
2019-03-30T12:39:09.802Z,27.20
2019-03-30T12:41:38.489Z,26.90
2019-03-30T12:44:07.064Z,27.90
2019-03-30T12:46:35.770Z,28.10
2019-03-30T12:49:25.843Z,27.90
2019-03-30T12:51:54.343Z,28.30
2019-03-30T12:54:24.551Z,27.90
2019-03-30T12:56:53.100Z,25.70
2019-03-30T12:59:22.264Z,26.50
2019-03-30T13:01:51.889Z,26.60
2019-03-30T13:04:22.180Z,26.00
2019-03-30T13:06:51.177Z,25.80
2019-03-30T13:09:20.588Z,24.30
2019-03-30T13:11:49.124Z,24.50
2019-03-30T13:14:17.594Z,25.60
2019-03-30T13:16:46.120Z,27.30
2019-03-30T13:19:14.661Z,27.70
2019-03-30T13:21:52.502Z,27.20
2019-03-30T13:24:13.631Z,26.70
2019-03-30T13:26:42.182Z,27.20
2019-03-30T13:29:10.714Z,24.90
2019-03-30T13:31:39.608Z,23.80
2019-03-30T13:34:08.153Z,22.90
2019-03-30T13:36:40.737Z,22.50
2019-03-30T13:39:09.653Z,18.70
2019-03-30T13:41:38.321Z,19.20
2019-03-30T13:44:12.613Z,18.20
2019-03-30T13:46:41.286Z,18.90
2019-03-30T13:49:24.587Z,18.40
2019-03-30T13:51:57.874Z,19.60
2019-03-30T13:54:26.368Z,18.90
2019-03-30T13:56:54.969Z,19.20
2019-03-30T13:59:23.484Z,18.60
2019-03-30T14:01:53.241Z,18.10
2019-03-30T14:04:21.844Z,19.20
2019-03-30T14:06:50.358Z,21.10
2019-03-30T14:09:18.893Z,20.80
2019-03-30T14:12:02.089Z,21.50
2019-03-30T14:14:30.653Z,21.90
2019-03-30T14:16:59.191Z,20.90
2019-03-30T14:19:27.722Z,20.40
2019-03-30T14:21:56.225Z,20.80
2019-03-30T14:24:24.755Z,19.80
2019-03-30T14:29:29.165Z,21.60
2019-03-30T14:31:57.674Z,20.10
2019-03-30T14:34:26.169Z,19.90
2019-03-30T14:36:58.783Z,20.50
2019-03-30T14:39:27.329Z,20.00
2019-03-30T14:41:55.881Z,19.90
2019-03-30T14:44:24.454Z,20.80
2019-03-30T14:46:52.917Z,20.90
2019-03-30T14:49:21.445Z,19.90
2019-03-30T14:51:49.951Z,20.10
2019-03-30T14:54:18.492Z,19.80
2019-03-30T14:56:47.036Z,19.90
2019-03-30T14:59:15.623Z,20.40
2019-03-30T15:01:44.256Z,21.20
2019-03-30T15:04:12.840Z,20.70
2019-03-30T15:06:41.333Z,19.80
2019-03-30T15:09:09.797Z,20.50
2019-03-30T15:11:38.261Z,21.10
2019-03-30T15:14:06.761Z,21.30
2019-03-30T15:16:35.309Z,22.10
2019-03-30T15:19:03.914Z,23.20
2019-03-30T15:21:32.485Z,24.60
2019-03-30T15:24:01.021Z,22.60
2019-03-30T15:26:29.489Z,22.20
2019-03-30T15:28:58.060Z,22.30
2019-03-30T15:31:26.618Z,22.70
2019-03-30T15:33:55.145Z,20.90
2019-03-30T15:36:23.681Z,21.60
2019-03-30T15:38:52.183Z,20.70
2019-03-30T15:41:20.720Z,21.80
2019-03-30T15:43:51.990Z,21.00
2019-03-30T15:46:19.561Z,22.00
2019-03-30T15:48:48.028Z,22.20
2019-03-30T15:51:16.669Z,21.70
2019-03-30T15:53:45.140Z,21.80
2019-03-30T15:56:13.600Z,23.10
2019-03-30T15:58:42.119Z,23.00
2019-03-30T16:01:10.801Z,23.40
2019-03-30T16:03:39.438Z,24.90
2019-03-30T16:06:08.915Z,25.50
2019-03-30T16:08:36.669Z,26.60
2019-03-30T16:11:05.342Z,27.00
2019-03-30T16:13:33.926Z,27.00
2019-03-30T16:16:02.457Z,27.20
2019-03-30T16:18:30.978Z,27.90
2019-03-30T16:20:59.525Z,28.50
2019-03-30T16:23:28.124Z,29.40
2019-03-30T16:25:56.621Z,29.50
2019-03-30T16:28:25.168Z,29.70
2019-03-30T16:30:54.830Z,30.00
2019-03-30T16:33:23.381Z,30.30
2019-03-30T16:36:02.707Z,31.40
2019-03-30T16:38:30.419Z,30.50
2019-03-30T16:40:58.940Z,30.90
2019-03-30T16:43:27.457Z,31.60
2019-03-30T16:45:55.929Z,31.80
2019-03-30T16:48:24.417Z,33.20
2019-03-30T16:50:52.993Z,33.80
2019-03-30T16:53:21.536Z,33.20
2019-03-30T16:55:50.075Z,34.40
2019-03-30T16:58:18.700Z,34.40
2019-03-30T17:00:56.235Z,35.00
2019-03-30T17:03:45.889Z,35.70
2019-03-30T17:06:14.355Z,36.70
2019-03-30T17:08:43.000Z,36.80
2019-03-30T17:11:11.464Z,37.40
2019-03-30T17:13:39.938Z,37.70
2019-03-30T17:16:08.454Z,40.50
2019-03-30T17:18:37.000Z,40.60
2019-03-30T17:21:05.539Z,40.50
2019-03-30T17:23:53.491Z,40.80
2019-03-30T17:26:22.028Z,43.00
2019-03-30T17:28:50.567Z,42.60
2019-03-30T17:31:19.250Z,42.80
2019-03-30T17:33:47.791Z,43.30
2019-03-30T17:36:16.272Z,43.40
2019-03-30T17:38:44.846Z,43.30
2019-03-30T17:41:13.477Z,43.50
2019-03-30T17:43:42.084Z,43.50
2019-03-30T17:46:10.652Z,43.90
2019-03-30T17:48:39.251Z,44.80
2019-03-30T17:51:07.734Z,48.40
2019-03-30T17:53:39.327Z,46.50
2019-03-30T17:56:06.693Z,47.10
2019-03-30T17:58:40.586Z,48.50
2019-03-30T18:04:25.189Z,48.90
2019-03-30T18:06:53.692Z,49.00
2019-03-30T18:09:23.810Z,50.60
2019-03-30T18:11:52.424Z,51.10
2019-03-30T18:14:20.921Z,49.70
2019-03-30T18:16:52.589Z,50.00
2019-03-30T18:19:21.420Z,49.90
2019-03-30T18:21:50.010Z,49.90
2019-03-30T18:24:20.357Z,50.50
2019-03-30T18:26:48.984Z,53.40
2019-03-30T18:29:17.505Z,54.50
2019-03-30T18:31:46.138Z,58.20
2019-03-30T18:34:15.825Z,56.30
2019-03-30T18:36:48.179Z,56.70
2019-03-30T18:39:16.807Z,56.60
2019-03-30T18:41:45.510Z,55.70
2019-03-30T18:44:14.324Z,56.40
2019-03-30T18:46:42.794Z,57.40
2019-03-30T18:49:11.264Z,59.10
2019-03-30T18:51:42.580Z,58.60
2019-03-30T18:54:11.656Z,59.00
2019-03-30T18:56:41.105Z,58.40
2019-03-30T18:59:09.777Z,58.80
2019-03-30T19:01:38.243Z,58.70
2019-03-30T19:04:06.715Z,58.80
2019-03-30T19:06:35.351Z,61.00
2019-03-30T19:09:05.684Z,59.70
2019-03-30T19:11:39.306Z,59.90
2019-03-30T19:14:35.811Z,60.20
2019-03-30T19:17:06.064Z,60.10
2019-03-30T19:19:34.630Z,60.30
2019-03-30T19:22:22.506Z,61.30
2019-03-30T19:24:51.054Z,61.10
2019-03-30T19:27:19.620Z,61.70
2019-03-30T19:29:57.651Z,61.00
2019-03-30T19:32:21.054Z,62.00
2019-03-30T19:34:56.201Z,62.40
2019-03-30T19:37:28.268Z,61.90
2019-03-30T19:39:56.816Z,62.50
2019-03-30T19:42:25.355Z,63.70
2019-03-30T19:44:53.914Z,62.70
2019-03-30T19:47:22.549Z,63.10
2019-03-30T19:49:59.111Z,62.80
2019-03-30T19:52:39.301Z,62.90
2019-03-30T19:54:57.899Z,65.10
2019-03-30T19:57:27.866Z,64.10
2019-03-30T20:00:01.653Z,63.90
2019-03-30T20:02:30.195Z,64.50
2019-03-30T20:04:59.130Z,64.40
2019-03-30T20:07:27.673Z,64.60
2019-03-30T20:09:56.203Z,65.30
2019-03-30T20:12:25.382Z,65.90
2019-03-30T20:14:56.289Z,66.30
2019-03-30T20:17:24.813Z,67.00
2019-03-30T20:19:53.349Z,67.50
2019-03-30T20:25:07.746Z,66.70
2019-03-30T20:27:40.053Z,67.20
2019-03-30T20:30:11.983Z,67.50
2019-03-30T20:32:43.185Z,67.80
2019-03-30T20:35:10.872Z,68.10
2019-03-30T20:37:39.482Z,67.80
2019-03-30T20:40:10.561Z,68.30
2019-03-30T20:42:57.123Z,68.30
2019-03-30T20:45:34.686Z,68.80
2019-03-30T20:48:06.086Z,69.20
2019-03-30T20:50:34.686Z,69.40
2019-03-30T20:53:04.706Z,70.40
2019-03-30T20:58:11.863Z,72.90
2019-03-30T21:00:48.409Z,72.60
2019-03-30T21:03:18.597Z,73.10
2019-03-30T21:05:51.462Z,73.20
2019-03-30T21:08:23.435Z,73.20
2019-03-30T21:10:54.820Z,72.70
2019-03-30T21:16:22.333Z,71.70
2019-03-30T21:18:53.672Z,71.10
2019-03-30T21:21:27.272Z,71.10
2019-03-30T21:24:29.117Z,70.60
2019-03-30T21:27:03.338Z,70.60
2019-03-30T21:32:11.582Z,72.60
2019-03-30T21:34:47.321Z,71.70
2019-03-30T21:37:15.938Z,71.20
2019-03-30T21:39:44.625Z,70.80
2019-03-30T21:42:16.593Z,71.20
2019-03-30T21:59:27.389Z,71.60
2019-03-30T22:01:57.814Z,70.30
2019-03-30T22:04:31.209Z,70.20
2019-03-30T22:06:59.814Z,71.60
2019-03-30T22:09:29.488Z,70.60
2019-03-30T22:11:58.268Z,70.70
2019-03-30T22:14:27.575Z,71.10
2019-03-30T22:16:56.038Z,71.50
2019-03-30T22:19:31.271Z,71.40
2019-03-30T22:22:21.476Z,72.00
2019-03-30T22:30:45.256Z,70.60
2019-03-30T22:33:14.374Z,69.60
2019-03-30T22:35:45.161Z,69.40
2019-03-30T22:38:14.166Z,69.20
2019-03-30T22:40:42.945Z,69.00
2019-03-30T22:43:11.585Z,69.40
2019-03-30T22:45:40.188Z,69.10
2019-03-30T22:48:08.875Z,69.60
2019-03-30T22:50:38.613Z,70.00
2019-03-30T22:53:06.293Z,70.20
2019-03-30T22:55:34.804Z,70.20
2019-03-30T22:58:03.352Z,70.20
2019-03-30T23:03:08.804Z,70.10
2019-03-30T23:05:37.434Z,70.60
2019-03-30T23:08:06.068Z,70.80
2019-03-30T23:10:34.815Z,70.90
2019-03-30T23:13:03.528Z,71.60
2019-03-30T23:15:35.137Z,71.60
2019-03-30T23:18:03.899Z,72.20
2019-03-30T23:20:32.525Z,71.80
2019-03-30T23:23:01.207Z,71.20
2019-03-30T23:28:02.106Z,70.60
2019-03-30T23:30:33.720Z,70.50
2019-03-30T23:33:02.338Z,70.30
2019-03-30T23:35:30.936Z,70.30
2019-03-30T23:37:59.545Z,70.30
2019-03-30T23:40:29.706Z,70.30
2019-03-30T23:42:58.368Z,70.30
2019-03-30T23:45:27.040Z,70.40
2019-03-30T23:47:55.592Z,70.90
2019-03-30T23:50:24.161Z,71.30
2019-03-30T23:52:52.628Z,72.00
2019-03-30T23:55:21.089Z,71.90
2019-03-30T23:57:49.597Z,72.10
